<?xml version="1.0" encoding="UTF-8"?>
<gpx creator="WikiLoc - http://www.wikiloc.com" version="1.1" xmlns="http://www.topografix.com/GPX/1/1">
    <trk>
        <name>La Gomera. Chipude - Garajonay</name>
        <cmt/>
        <desc/>
        <trkseg>
            <trkpt lat="28.109746" lon="-17.283031">
                <ele>1074.891357</ele>
                <time>2008-03-11T03:11:31.000-07:00</time>
            </trkpt>
            <trkpt lat="28.109722" lon="-17.283034">
                <ele>1078.736572</ele>
                <time>2008-03-11T03:11:32.000-07:00</time>
            </trkpt>
            <trkpt lat="28.109814" lon="-17.282975">
                <ele>1085.465820</ele>
                <time>2008-03-11T03:11:38.000-07:00</time>
            </trkpt>
            <trkpt lat="28.109965" lon="-17.282941">
                <ele>1088.349854</ele>
                <time>2008-03-11T03:12:04.000-07:00</time>
            </trkpt>
            <trkpt lat="28.109905" lon="-17.282574">
                <ele>1093.156250</ele>
                <time>2008-03-11T03:12:32.000-07:00</time>
            </trkpt>
            <trkpt lat="28.109924" lon="-17.282293">
                <ele>1097.001465</ele>
                <time>2008-03-11T03:12:55.000-07:00</time>
            </trkpt>
            <trkpt lat="28.109904" lon="-17.282127">
                <ele>1098.443359</ele>
                <time>2008-03-11T03:13:10.000-07:00</time>
            </trkpt>
            <trkpt lat="28.109633" lon="-17.281752">
                <ele>1102.288818</ele>
                <time>2008-03-11T03:13:50.000-07:00</time>
            </trkpt>
            <trkpt lat="28.109689" lon="-17.281327">
                <ele>1099.885498</ele>
                <time>2008-03-11T03:23:36.000-07:00</time>
            </trkpt>
            <trkpt lat="28.109704" lon="-17.281079">
                <ele>1099.885498</ele>
                <time>2008-03-11T03:23:50.000-07:00</time>
            </trkpt>
            <trkpt lat="28.109634" lon="-17.280895">
                <ele>1101.808350</ele>
                <time>2008-03-11T03:24:04.000-07:00</time>
            </trkpt>
            <trkpt lat="28.109543" lon="-17.280637">
                <ele>1101.327637</ele>
                <time>2008-03-11T03:24:21.000-07:00</time>
            </trkpt>
            <trkpt lat="28.109504" lon="-17.280507">
                <ele>1097.001465</ele>
                <time>2008-03-11T03:24:31.000-07:00</time>
            </trkpt>
            <trkpt lat="28.109420" lon="-17.280386">
                <ele>1096.040283</ele>
                <time>2008-03-11T03:24:42.000-07:00</time>
            </trkpt>
            <trkpt lat="28.108944" lon="-17.280155">
                <ele>1100.846924</ele>
                <time>2008-03-11T03:25:28.000-07:00</time>
            </trkpt>
            <trkpt lat="28.108743" lon="-17.280036">
                <ele>1104.692139</ele>
                <time>2008-03-11T03:25:54.000-07:00</time>
            </trkpt>
            <trkpt lat="28.108591" lon="-17.279902">
                <ele>1108.056885</ele>
                <time>2008-03-11T03:26:22.000-07:00</time>
            </trkpt>
            <trkpt lat="28.108366" lon="-17.279701">
                <ele>1112.863281</ele>
                <time>2008-03-11T03:27:02.000-07:00</time>
            </trkpt>
            <trkpt lat="28.108319" lon="-17.279612">
                <ele>1112.863281</ele>
                <time>2008-03-11T03:27:12.000-07:00</time>
            </trkpt>
            <trkpt lat="28.108269" lon="-17.279459">
                <ele>1111.902100</ele>
                <time>2008-03-11T03:27:27.000-07:00</time>
            </trkpt>
            <trkpt lat="28.108071" lon="-17.278992">
                <ele>1106.134033</ele>
                <time>2008-03-11T03:28:10.000-07:00</time>
            </trkpt>
            <trkpt lat="28.108018" lon="-17.278774">
                <ele>1100.846924</ele>
                <time>2008-03-11T03:28:31.000-07:00</time>
            </trkpt>
            <trkpt lat="28.107766" lon="-17.278285">
                <ele>1103.250244</ele>
                <time>2008-03-11T03:30:08.000-07:00</time>
            </trkpt>
            <trkpt lat="28.107466" lon="-17.278169">
                <ele>1107.576172</ele>
                <time>2008-03-11T03:30:48.000-07:00</time>
            </trkpt>
            <trkpt lat="28.107222" lon="-17.278039">
                <ele>1111.421387</ele>
                <time>2008-03-11T03:31:21.000-07:00</time>
            </trkpt>
            <trkpt lat="28.107121" lon="-17.277971">
                <ele>1111.421387</ele>
                <time>2008-03-11T03:31:35.000-07:00</time>
            </trkpt>
            <trkpt lat="28.107117" lon="-17.277798">
                <ele>1112.382568</ele>
                <time>2008-03-11T03:31:51.000-07:00</time>
            </trkpt>
            <trkpt lat="28.107013" lon="-17.277557">
                <ele>1111.902100</ele>
                <time>2008-03-11T03:32:11.000-07:00</time>
            </trkpt>
            <trkpt lat="28.106962" lon="-17.277397">
                <ele>1110.459961</ele>
                <time>2008-03-11T03:32:24.000-07:00</time>
            </trkpt>
            <trkpt lat="28.106928" lon="-17.277317">
                <ele>1110.459961</ele>
                <time>2008-03-11T03:32:31.000-07:00</time>
            </trkpt>
            <trkpt lat="28.106776" lon="-17.277145">
                <ele>1106.134033</ele>
                <time>2008-03-11T03:32:46.000-07:00</time>
            </trkpt>
            <trkpt lat="28.106588" lon="-17.276920">
                <ele>1102.288818</ele>
                <time>2008-03-11T03:33:35.000-07:00</time>
            </trkpt>
            <trkpt lat="28.106462" lon="-17.276543">
                <ele>1106.614746</ele>
                <time>2008-03-11T03:34:14.000-07:00</time>
            </trkpt>
            <trkpt lat="28.106198" lon="-17.276488">
                <ele>1103.250244</ele>
                <time>2008-03-11T03:34:42.000-07:00</time>
            </trkpt>
            <trkpt lat="28.105973" lon="-17.276492">
                <ele>1101.327637</ele>
                <time>2008-03-11T03:34:59.000-07:00</time>
            </trkpt>
            <trkpt lat="28.105465" lon="-17.276142">
                <ele>1094.598145</ele>
                <time>2008-03-11T03:35:48.000-07:00</time>
            </trkpt>
            <trkpt lat="28.105230" lon="-17.275941">
                <ele>1090.752930</ele>
                <time>2008-03-11T03:36:12.000-07:00</time>
            </trkpt>
            <trkpt lat="28.105024" lon="-17.275691">
                <ele>1091.714355</ele>
                <time>2008-03-11T03:36:36.000-07:00</time>
            </trkpt>
            <trkpt lat="28.104926" lon="-17.275339">
                <ele>1088.830566</ele>
                <time>2008-03-11T03:37:17.000-07:00</time>
            </trkpt>
            <trkpt lat="28.104965" lon="-17.275218">
                <ele>1084.985352</ele>
                <time>2008-03-11T03:37:33.000-07:00</time>
            </trkpt>
            <trkpt lat="28.104935" lon="-17.275051">
                <ele>1081.139893</ele>
                <time>2008-03-11T03:38:10.000-07:00</time>
            </trkpt>
            <trkpt lat="28.104805" lon="-17.274911">
                <ele>1076.813965</ele>
                <time>2008-03-11T03:38:31.000-07:00</time>
            </trkpt>
            <trkpt lat="28.104495" lon="-17.275083">
                <ele>1074.410645</ele>
                <time>2008-03-11T03:39:10.000-07:00</time>
            </trkpt>
            <trkpt lat="28.104113" lon="-17.275299">
                <ele>1072.488037</ele>
                <time>2008-03-11T03:39:51.000-07:00</time>
            </trkpt>
            <trkpt lat="28.104073" lon="-17.275326">
                <ele>1073.449463</ele>
                <time>2008-03-11T03:39:56.000-07:00</time>
            </trkpt>
            <trkpt lat="28.104026" lon="-17.275486">
                <ele>1076.333252</ele>
                <time>2008-03-11T03:40:13.000-07:00</time>
            </trkpt>
            <trkpt lat="28.103905" lon="-17.275795">
                <ele>1080.178467</ele>
                <time>2008-03-11T03:41:07.000-07:00</time>
            </trkpt>
            <trkpt lat="28.103859" lon="-17.275288">
                <ele>1083.542969</ele>
                <time>2008-03-11T03:41:51.000-07:00</time>
            </trkpt>
            <trkpt lat="28.103685" lon="-17.275163">
                <ele>1091.233643</ele>
                <time>2008-03-11T03:42:19.000-07:00</time>
            </trkpt>
            <trkpt lat="28.103579" lon="-17.275111">
                <ele>1095.078857</ele>
                <time>2008-03-11T03:42:33.000-07:00</time>
            </trkpt>
            <trkpt lat="28.103391" lon="-17.275053">
                <ele>1098.443359</ele>
                <time>2008-03-11T03:42:58.000-07:00</time>
            </trkpt>
            <trkpt lat="28.103330" lon="-17.274919">
                <ele>1100.366455</ele>
                <time>2008-03-11T03:43:15.000-07:00</time>
            </trkpt>
            <trkpt lat="28.103311" lon="-17.274722">
                <ele>1101.808350</ele>
                <time>2008-03-11T03:43:34.000-07:00</time>
            </trkpt>
            <trkpt lat="28.103420" lon="-17.274397">
                <ele>1102.288818</ele>
                <time>2008-03-11T03:44:04.000-07:00</time>
            </trkpt>
            <trkpt lat="28.103373" lon="-17.274334">
                <ele>1102.288818</ele>
                <time>2008-03-11T03:44:10.000-07:00</time>
            </trkpt>
            <trkpt lat="28.103227" lon="-17.274198">
                <ele>1106.614746</ele>
                <time>2008-03-11T03:44:30.000-07:00</time>
            </trkpt>
            <trkpt lat="28.103133" lon="-17.274126">
                <ele>1110.459961</ele>
                <time>2008-03-11T03:44:45.000-07:00</time>
            </trkpt>
            <trkpt lat="28.103045" lon="-17.273985">
                <ele>1114.785889</ele>
                <time>2008-03-11T03:45:09.000-07:00</time>
            </trkpt>
            <trkpt lat="28.102909" lon="-17.273834">
                <ele>1118.150635</ele>
                <time>2008-03-11T03:45:32.000-07:00</time>
            </trkpt>
            <trkpt lat="28.102725" lon="-17.273680">
                <ele>1119.592773</ele>
                <time>2008-03-11T03:46:03.000-07:00</time>
            </trkpt>
            <trkpt lat="28.102563" lon="-17.273449">
                <ele>1121.034668</ele>
                <time>2008-03-11T03:46:32.000-07:00</time>
            </trkpt>
            <trkpt lat="28.102367" lon="-17.273064">
                <ele>1124.879883</ele>
                <time>2008-03-11T03:47:15.000-07:00</time>
            </trkpt>
            <trkpt lat="28.102345" lon="-17.272962">
                <ele>1126.802490</ele>
                <time>2008-03-11T03:47:27.000-07:00</time>
            </trkpt>
            <trkpt lat="28.102492" lon="-17.272237">
                <ele>1130.647705</ele>
                <time>2008-03-11T03:48:35.000-07:00</time>
            </trkpt>
            <trkpt lat="28.102557" lon="-17.272069">
                <ele>1134.012451</ele>
                <time>2008-03-11T03:48:57.000-07:00</time>
            </trkpt>
            <trkpt lat="28.102614" lon="-17.271887">
                <ele>1140.741455</ele>
                <time>2008-03-11T03:49:31.000-07:00</time>
            </trkpt>
            <trkpt lat="28.102682" lon="-17.271695">
                <ele>1147.470703</ele>
                <time>2008-03-11T03:50:04.000-07:00</time>
            </trkpt>
            <trkpt lat="28.102818" lon="-17.271512">
                <ele>1153.719482</ele>
                <time>2008-03-11T03:50:36.000-07:00</time>
            </trkpt>
            <trkpt lat="28.102989" lon="-17.271382">
                <ele>1157.083984</ele>
                <time>2008-03-11T03:50:58.000-07:00</time>
            </trkpt>
            <trkpt lat="28.103198" lon="-17.271270">
                <ele>1161.409912</ele>
                <time>2008-03-11T03:51:28.000-07:00</time>
            </trkpt>
            <trkpt lat="28.103461" lon="-17.270971">
                <ele>1156.122559</ele>
                <time>2008-03-11T03:52:14.000-07:00</time>
            </trkpt>
            <trkpt lat="28.103524" lon="-17.270870">
                <ele>1156.122559</ele>
                <time>2008-03-11T03:52:27.000-07:00</time>
            </trkpt>
            <trkpt lat="28.103751" lon="-17.270533">
                <ele>1159.006592</ele>
                <time>2008-03-11T03:53:18.000-07:00</time>
            </trkpt>
            <trkpt lat="28.103847" lon="-17.270403">
                <ele>1162.851807</ele>
                <time>2008-03-11T03:53:33.000-07:00</time>
            </trkpt>
            <trkpt lat="28.104134" lon="-17.270104">
                <ele>1172.945801</ele>
                <time>2008-03-11T03:54:27.000-07:00</time>
            </trkpt>
            <trkpt lat="28.104263" lon="-17.270004">
                <ele>1176.791016</ele>
                <time>2008-03-11T03:54:58.000-07:00</time>
            </trkpt>
            <trkpt lat="28.104428" lon="-17.269852">
                <ele>1180.636475</ele>
                <time>2008-03-11T03:55:34.000-07:00</time>
            </trkpt>
            <trkpt lat="28.104665" lon="-17.269523">
                <ele>1185.442871</ele>
                <time>2008-03-11T03:56:21.000-07:00</time>
            </trkpt>
            <trkpt lat="28.104795" lon="-17.269418">
                <ele>1188.326904</ele>
                <time>2008-03-11T03:56:39.000-07:00</time>
            </trkpt>
            <trkpt lat="28.104971" lon="-17.269290">
                <ele>1191.691406</ele>
                <time>2008-03-11T03:57:00.000-07:00</time>
            </trkpt>
            <trkpt lat="28.105109" lon="-17.269213">
                <ele>1192.652832</ele>
                <time>2008-03-11T03:57:15.000-07:00</time>
            </trkpt>
            <trkpt lat="28.105654" lon="-17.268704">
                <ele>1188.326904</ele>
                <time>2008-03-11T03:58:39.000-07:00</time>
            </trkpt>
            <trkpt lat="28.105799" lon="-17.268264">
                <ele>1183.520264</ele>
                <time>2008-03-11T03:59:25.000-07:00</time>
            </trkpt>
            <trkpt lat="28.105811" lon="-17.267847">
                <ele>1180.155762</ele>
                <time>2008-03-11T04:00:14.000-07:00</time>
            </trkpt>
            <trkpt lat="28.105824" lon="-17.267588">
                <ele>1178.232910</ele>
                <time>2008-03-11T04:00:51.000-07:00</time>
            </trkpt>
            <trkpt lat="28.106062" lon="-17.267015">
                <ele>1173.906982</ele>
                <time>2008-03-11T04:01:41.000-07:00</time>
            </trkpt>
            <trkpt lat="28.106082" lon="-17.266857">
                <ele>1172.945801</ele>
                <time>2008-03-11T04:01:54.000-07:00</time>
            </trkpt>
            <trkpt lat="28.106352" lon="-17.266565">
                <ele>1168.139160</ele>
                <time>2008-03-11T04:02:28.000-07:00</time>
            </trkpt>
            <trkpt lat="28.106484" lon="-17.266467">
                <ele>1170.061768</ele>
                <time>2008-03-11T04:02:44.000-07:00</time>
            </trkpt>
            <trkpt lat="28.106695" lon="-17.266352">
                <ele>1165.736084</ele>
                <time>2008-03-11T04:03:04.000-07:00</time>
            </trkpt>
            <trkpt lat="28.106911" lon="-17.266283">
                <ele>1161.409912</ele>
                <time>2008-03-11T04:03:23.000-07:00</time>
            </trkpt>
            <trkpt lat="28.107111" lon="-17.266208">
                <ele>1158.525879</ele>
                <time>2008-03-11T04:03:41.000-07:00</time>
            </trkpt>
            <trkpt lat="28.107237" lon="-17.266070">
                <ele>1158.525879</ele>
                <time>2008-03-11T04:03:58.000-07:00</time>
            </trkpt>
            <trkpt lat="28.107398" lon="-17.265627">
                <ele>1153.719482</ele>
                <time>2008-03-11T04:04:33.000-07:00</time>
            </trkpt>
            <trkpt lat="28.107649" lon="-17.265316">
                <ele>1151.316162</ele>
                <time>2008-03-11T04:05:07.000-07:00</time>
            </trkpt>
            <trkpt lat="28.107864" lon="-17.265091">
                <ele>1146.509521</ele>
                <time>2008-03-11T04:05:32.000-07:00</time>
            </trkpt>
            <trkpt lat="28.108045" lon="-17.265000">
                <ele>1142.664307</ele>
                <time>2008-03-11T04:05:48.000-07:00</time>
            </trkpt>
            <trkpt lat="28.108208" lon="-17.264996">
                <ele>1146.028809</ele>
                <time>2008-03-11T04:06:03.000-07:00</time>
            </trkpt>
            <trkpt lat="28.108366" lon="-17.264907">
                <ele>1144.586670</ele>
                <time>2008-03-11T04:06:21.000-07:00</time>
            </trkpt>
            <trkpt lat="28.108415" lon="-17.264657">
                <ele>1140.260986</ele>
                <time>2008-03-11T04:06:40.000-07:00</time>
            </trkpt>
            <trkpt lat="28.108567" lon="-17.264528">
                <ele>1136.896240</ele>
                <time>2008-03-11T04:06:57.000-07:00</time>
            </trkpt>
            <trkpt lat="28.108583" lon="-17.264362">
                <ele>1137.376953</ele>
                <time>2008-03-11T04:07:16.000-07:00</time>
            </trkpt>
            <trkpt lat="28.108349" lon="-17.263768">
                <ele>1130.647705</ele>
                <time>2008-03-11T04:08:39.000-07:00</time>
            </trkpt>
            <trkpt lat="28.108181" lon="-17.263899">
                <ele>1134.973877</ele>
                <time>2008-03-11T04:09:29.000-07:00</time>
            </trkpt>
            <trkpt lat="28.108011" lon="-17.263927">
                <ele>1138.338379</ele>
                <time>2008-03-11T04:10:02.000-07:00</time>
            </trkpt>
            <trkpt lat="28.107663" lon="-17.263828">
                <ele>1141.702881</ele>
                <time>2008-03-11T04:11:01.000-07:00</time>
            </trkpt>
            <trkpt lat="28.107543" lon="-17.263735">
                <ele>1143.144775</ele>
                <time>2008-03-11T04:11:28.000-07:00</time>
            </trkpt>
            <trkpt lat="28.107307" lon="-17.263244">
                <ele>1145.548096</ele>
                <time>2008-03-11T04:12:49.000-07:00</time>
            </trkpt>
            <trkpt lat="28.106980" lon="-17.262845">
                <ele>1146.989990</ele>
                <time>2008-03-11T04:13:59.000-07:00</time>
            </trkpt>
            <trkpt lat="28.106852" lon="-17.262807">
                <ele>1154.680664</ele>
                <time>2008-03-11T04:14:12.000-07:00</time>
            </trkpt>
            <trkpt lat="28.106658" lon="-17.262744">
                <ele>1170.061768</ele>
                <time>2008-03-11T04:14:37.000-07:00</time>
            </trkpt>
            <trkpt lat="28.106515" lon="-17.262721">
                <ele>1174.387695</ele>
                <time>2008-03-11T04:14:54.000-07:00</time>
            </trkpt>
            <trkpt lat="28.106172" lon="-17.262694">
                <ele>1179.194092</ele>
                <time>2008-03-11T04:15:31.000-07:00</time>
            </trkpt>
            <trkpt lat="28.106008" lon="-17.262689">
                <ele>1178.713623</ele>
                <time>2008-03-11T04:16:50.000-07:00</time>
            </trkpt>
            <trkpt lat="28.105671" lon="-17.262664">
                <ele>1180.636475</ele>
                <time>2008-03-11T04:17:18.000-07:00</time>
            </trkpt>
            <trkpt lat="28.105153" lon="-17.262774">
                <ele>1185.442871</ele>
                <time>2008-03-11T04:18:15.000-07:00</time>
            </trkpt>
            <trkpt lat="28.104996" lon="-17.262599">
                <ele>1193.614014</ele>
                <time>2008-03-11T04:18:40.000-07:00</time>
            </trkpt>
            <trkpt lat="28.104883" lon="-17.262451">
                <ele>1197.940186</ele>
                <time>2008-03-11T04:18:56.000-07:00</time>
            </trkpt>
            <trkpt lat="28.104845" lon="-17.262351">
                <ele>1197.940186</ele>
                <time>2008-03-11T04:19:05.000-07:00</time>
            </trkpt>
            <trkpt lat="28.104720" lon="-17.261902">
                <ele>1202.746582</ele>
                <time>2008-03-11T04:19:52.000-07:00</time>
            </trkpt>
            <trkpt lat="28.104678" lon="-17.261769">
                <ele>1206.591797</ele>
                <time>2008-03-11T04:20:05.000-07:00</time>
            </trkpt>
            <trkpt lat="28.104595" lon="-17.261480">
                <ele>1211.879150</ele>
                <time>2008-03-11T04:20:30.000-07:00</time>
            </trkpt>
            <trkpt lat="28.104409" lon="-17.261317">
                <ele>1207.553223</ele>
                <time>2008-03-11T04:21:05.000-07:00</time>
            </trkpt>
            <trkpt lat="28.104305" lon="-17.261105">
                <ele>1210.917725</ele>
                <time>2008-03-11T04:21:33.000-07:00</time>
            </trkpt>
            <trkpt lat="28.104286" lon="-17.260962">
                <ele>1213.321289</ele>
                <time>2008-03-11T04:21:49.000-07:00</time>
            </trkpt>
            <trkpt lat="28.104180" lon="-17.260811">
                <ele>1216.685791</ele>
                <time>2008-03-11T04:22:10.000-07:00</time>
            </trkpt>
            <trkpt lat="28.104141" lon="-17.260561">
                <ele>1221.492188</ele>
                <time>2008-03-11T04:22:25.000-07:00</time>
            </trkpt>
            <trkpt lat="28.104039" lon="-17.260402">
                <ele>1227.260254</ele>
                <time>2008-03-11T04:22:40.000-07:00</time>
            </trkpt>
            <trkpt lat="28.103999" lon="-17.260157">
                <ele>1232.547607</ele>
                <time>2008-03-11T04:23:02.000-07:00</time>
            </trkpt>
            <trkpt lat="28.103972" lon="-17.259973">
                <ele>1237.354004</ele>
                <time>2008-03-11T04:23:16.000-07:00</time>
            </trkpt>
            <trkpt lat="28.103970" lon="-17.259846">
                <ele>1240.718506</ele>
                <time>2008-03-11T04:23:27.000-07:00</time>
            </trkpt>
            <trkpt lat="28.103955" lon="-17.259700">
                <ele>1244.083496</ele>
                <time>2008-03-11T04:23:40.000-07:00</time>
            </trkpt>
            <trkpt lat="28.103838" lon="-17.259570">
                <ele>1247.928711</ele>
                <time>2008-03-11T04:24:00.000-07:00</time>
            </trkpt>
            <trkpt lat="28.103653" lon="-17.259467">
                <ele>1254.177246</ele>
                <time>2008-03-11T04:24:27.000-07:00</time>
            </trkpt>
            <trkpt lat="28.103548" lon="-17.259444">
                <ele>1255.138428</ele>
                <time>2008-03-11T04:24:45.000-07:00</time>
            </trkpt>
            <trkpt lat="28.103391" lon="-17.259360">
                <ele>1228.702393</ele>
                <time>2008-03-11T04:25:03.000-07:00</time>
            </trkpt>
            <trkpt lat="28.103190" lon="-17.259343">
                <ele>1213.321289</ele>
                <time>2008-03-11T04:25:18.000-07:00</time>
            </trkpt>
            <trkpt lat="28.103083" lon="-17.259291">
                <ele>1211.879150</ele>
                <time>2008-03-11T04:25:32.000-07:00</time>
            </trkpt>
            <trkpt lat="28.102727" lon="-17.258654">
                <ele>1213.321289</ele>
                <time>2008-03-11T04:26:45.000-07:00</time>
            </trkpt>
            <trkpt lat="28.102680" lon="-17.258504">
                <ele>1206.591797</ele>
                <time>2008-03-11T04:28:12.000-07:00</time>
            </trkpt>
            <trkpt lat="28.102673" lon="-17.258233">
                <ele>1202.265869</ele>
                <time>2008-03-11T04:28:33.000-07:00</time>
            </trkpt>
            <trkpt lat="28.102537" lon="-17.258013">
                <ele>1203.708008</ele>
                <time>2008-03-11T04:29:14.000-07:00</time>
            </trkpt>
            <trkpt lat="28.102213" lon="-17.258029">
                <ele>1207.072510</ele>
                <time>2008-03-11T04:29:42.000-07:00</time>
            </trkpt>
            <trkpt lat="28.102103" lon="-17.258084">
                <ele>1200.823975</ele>
                <time>2008-03-11T04:29:55.000-07:00</time>
            </trkpt>
            <trkpt lat="28.102006" lon="-17.258119">
                <ele>1200.823975</ele>
                <time>2008-03-11T04:30:07.000-07:00</time>
            </trkpt>
            <trkpt lat="28.101868" lon="-17.258195">
                <ele>1202.265869</ele>
                <time>2008-03-11T04:30:21.000-07:00</time>
            </trkpt>
            <trkpt lat="28.101358" lon="-17.258319">
                <ele>1208.033936</ele>
                <time>2008-03-11T04:31:13.000-07:00</time>
            </trkpt>
            <trkpt lat="28.101181" lon="-17.258414">
                <ele>1206.591797</ele>
                <time>2008-03-11T04:31:30.000-07:00</time>
            </trkpt>
            <trkpt lat="28.101073" lon="-17.258406">
                <ele>1203.708008</ele>
                <time>2008-03-11T04:31:42.000-07:00</time>
            </trkpt>
            <trkpt lat="28.100823" lon="-17.257849">
                <ele>1206.111084</ele>
                <time>2008-03-11T04:32:33.000-07:00</time>
            </trkpt>
            <trkpt lat="28.100766" lon="-17.257589">
                <ele>1213.801758</ele>
                <time>2008-03-11T04:33:00.000-07:00</time>
            </trkpt>
            <trkpt lat="28.100708" lon="-17.257356">
                <ele>1218.127686</ele>
                <time>2008-03-11T04:33:21.000-07:00</time>
            </trkpt>
            <trkpt lat="28.100622" lon="-17.257145">
                <ele>1223.895508</ele>
                <time>2008-03-11T04:33:55.000-07:00</time>
            </trkpt>
            <trkpt lat="28.100527" lon="-17.257244">
                <ele>1229.663574</ele>
                <time>2008-03-11T04:34:12.000-07:00</time>
            </trkpt>
            <trkpt lat="28.100344" lon="-17.257289">
                <ele>1238.796143</ele>
                <time>2008-03-11T04:34:37.000-07:00</time>
            </trkpt>
            <trkpt lat="28.100271" lon="-17.257403">
                <ele>1242.160645</ele>
                <time>2008-03-11T04:34:47.000-07:00</time>
            </trkpt>
            <trkpt lat="28.100159" lon="-17.257530">
                <ele>1246.967285</ele>
                <time>2008-03-11T04:35:03.000-07:00</time>
            </trkpt>
            <trkpt lat="28.100036" lon="-17.257546">
                <ele>1250.812500</ele>
                <time>2008-03-11T04:35:16.000-07:00</time>
            </trkpt>
            <trkpt lat="28.099858" lon="-17.257508">
                <ele>1257.541748</ele>
                <time>2008-03-11T04:35:36.000-07:00</time>
            </trkpt>
            <trkpt lat="28.099777" lon="-17.257444">
                <ele>1261.867920</ele>
                <time>2008-03-11T04:35:47.000-07:00</time>
            </trkpt>
            <trkpt lat="28.099657" lon="-17.257607">
                <ele>1268.596924</ele>
                <time>2008-03-11T04:36:07.000-07:00</time>
            </trkpt>
            <trkpt lat="28.099531" lon="-17.257724">
                <ele>1271.480713</ele>
                <time>2008-03-11T04:36:27.000-07:00</time>
            </trkpt>
            <trkpt lat="28.099261" lon="-17.257831">
                <ele>1275.325928</ele>
                <time>2008-03-11T04:37:07.000-07:00</time>
            </trkpt>
            <trkpt lat="28.098997" lon="-17.257775">
                <ele>1281.094238</ele>
                <time>2008-03-11T04:37:57.000-07:00</time>
            </trkpt>
            <trkpt lat="28.098782" lon="-17.257565">
                <ele>1283.978027</ele>
                <time>2008-03-11T04:38:31.000-07:00</time>
            </trkpt>
            <trkpt lat="28.098578" lon="-17.257330">
                <ele>1287.823242</ele>
                <time>2008-03-11T04:39:06.000-07:00</time>
            </trkpt>
            <trkpt lat="28.098421" lon="-17.257106">
                <ele>1292.630127</ele>
                <time>2008-03-11T04:39:47.000-07:00</time>
            </trkpt>
            <trkpt lat="28.098356" lon="-17.256893">
                <ele>1299.839844</ele>
                <time>2008-03-11T04:40:33.000-07:00</time>
            </trkpt>
            <trkpt lat="28.098191" lon="-17.256767">
                <ele>1308.491699</ele>
                <time>2008-03-11T04:41:01.000-07:00</time>
            </trkpt>
            <trkpt lat="28.098097" lon="-17.256732">
                <ele>1311.856445</ele>
                <time>2008-03-11T04:41:17.000-07:00</time>
            </trkpt>
            <trkpt lat="28.097714" lon="-17.256722">
                <ele>1312.817627</ele>
                <time>2008-03-11T04:42:05.000-07:00</time>
            </trkpt>
            <trkpt lat="28.097217" lon="-17.256371">
                <ele>1251.773926</ele>
                <time>2008-03-11T04:43:18.000-07:00</time>
            </trkpt>
            <trkpt lat="28.097327" lon="-17.255974">
                <ele>1254.177246</ele>
                <time>2008-03-11T04:48:06.000-07:00</time>
            </trkpt>
            <trkpt lat="28.097394" lon="-17.255843">
                <ele>1255.138428</ele>
                <time>2008-03-11T04:48:24.000-07:00</time>
            </trkpt>
            <trkpt lat="28.097453" lon="-17.255661">
                <ele>1257.541748</ele>
                <time>2008-03-11T04:48:41.000-07:00</time>
            </trkpt>
            <trkpt lat="28.097582" lon="-17.255347">
                <ele>1261.387207</ele>
                <time>2008-03-11T04:49:11.000-07:00</time>
            </trkpt>
            <trkpt lat="28.097688" lon="-17.255088">
                <ele>1266.193604</ele>
                <time>2008-03-11T04:49:38.000-07:00</time>
            </trkpt>
            <trkpt lat="28.097712" lon="-17.254936">
                <ele>1270.038818</ele>
                <time>2008-03-11T04:49:53.000-07:00</time>
            </trkpt>
            <trkpt lat="28.097707" lon="-17.254791">
                <ele>1271.961426</ele>
                <time>2008-03-11T04:50:06.000-07:00</time>
            </trkpt>
            <trkpt lat="28.097715" lon="-17.254480">
                <ele>1272.442139</ele>
                <time>2008-03-11T04:50:35.000-07:00</time>
            </trkpt>
            <trkpt lat="28.097842" lon="-17.254150">
                <ele>1271.961426</ele>
                <time>2008-03-11T04:51:15.000-07:00</time>
            </trkpt>
            <trkpt lat="28.098056" lon="-17.253957">
                <ele>1275.806641</ele>
                <time>2008-03-11T04:51:44.000-07:00</time>
            </trkpt>
            <trkpt lat="28.098295" lon="-17.253836">
                <ele>1279.652100</ele>
                <time>2008-03-11T04:52:11.000-07:00</time>
            </trkpt>
            <trkpt lat="28.098410" lon="-17.253737">
                <ele>1279.171387</ele>
                <time>2008-03-11T04:52:25.000-07:00</time>
            </trkpt>
            <trkpt lat="28.098706" lon="-17.253499">
                <ele>1283.978027</ele>
                <time>2008-03-11T04:53:01.000-07:00</time>
            </trkpt>
            <trkpt lat="28.098789" lon="-17.253423">
                <ele>1283.497314</ele>
                <time>2008-03-11T04:53:11.000-07:00</time>
            </trkpt>
            <trkpt lat="28.099056" lon="-17.253234">
                <ele>1286.381348</ele>
                <time>2008-03-11T04:54:10.000-07:00</time>
            </trkpt>
            <trkpt lat="28.099104" lon="-17.253353">
                <ele>1289.745850</ele>
                <time>2008-03-11T04:54:33.000-07:00</time>
            </trkpt>
            <trkpt lat="28.099290" lon="-17.253244">
                <ele>1294.552490</ele>
                <time>2008-03-11T04:55:00.000-07:00</time>
            </trkpt>
            <trkpt lat="28.099400" lon="-17.253218">
                <ele>1298.878418</ele>
                <time>2008-03-11T04:55:16.000-07:00</time>
            </trkpt>
            <trkpt lat="28.099861" lon="-17.253023">
                <ele>1303.685059</ele>
                <time>2008-03-11T04:56:14.000-07:00</time>
            </trkpt>
            <trkpt lat="28.100016" lon="-17.253003">
                <ele>1304.165771</ele>
                <time>2008-03-11T04:56:28.000-07:00</time>
            </trkpt>
            <trkpt lat="28.100591" lon="-17.252827">
                <ele>1309.453125</ele>
                <time>2008-03-11T04:58:42.000-07:00</time>
            </trkpt>
            <trkpt lat="28.100937" lon="-17.252559">
                <ele>1312.336914</ele>
                <time>2008-03-11T04:59:17.000-07:00</time>
            </trkpt>
            <trkpt lat="28.101474" lon="-17.252200">
                <ele>1319.066162</ele>
                <time>2008-03-11T05:00:18.000-07:00</time>
            </trkpt>
            <trkpt lat="28.101635" lon="-17.252025">
                <ele>1320.027344</ele>
                <time>2008-03-11T05:00:39.000-07:00</time>
            </trkpt>
            <trkpt lat="28.101789" lon="-17.251791">
                <ele>1328.198730</ele>
                <time>2008-03-11T05:01:04.000-07:00</time>
            </trkpt>
            <trkpt lat="28.101824" lon="-17.251615">
                <ele>1329.640625</ele>
                <time>2008-03-11T05:01:26.000-07:00</time>
            </trkpt>
            <trkpt lat="28.101998" lon="-17.251121">
                <ele>1326.276123</ele>
                <time>2008-03-11T05:02:08.000-07:00</time>
            </trkpt>
            <trkpt lat="28.102183" lon="-17.251042">
                <ele>1326.756836</ele>
                <time>2008-03-11T05:02:25.000-07:00</time>
            </trkpt>
            <trkpt lat="28.102559" lon="-17.250869">
                <ele>1330.121338</ele>
                <time>2008-03-11T05:03:04.000-07:00</time>
            </trkpt>
            <trkpt lat="28.102729" lon="-17.250836">
                <ele>1333.485840</ele>
                <time>2008-03-11T05:03:23.000-07:00</time>
            </trkpt>
            <trkpt lat="28.102994" lon="-17.250635">
                <ele>1337.811768</ele>
                <time>2008-03-11T05:04:02.000-07:00</time>
            </trkpt>
            <trkpt lat="28.103058" lon="-17.250567">
                <ele>1342.137939</ele>
                <time>2008-03-11T05:04:15.000-07:00</time>
            </trkpt>
            <trkpt lat="28.103165" lon="-17.250481">
                <ele>1346.463867</ele>
                <time>2008-03-11T05:04:30.000-07:00</time>
            </trkpt>
            <trkpt lat="28.103402" lon="-17.250351">
                <ele>1357.999756</ele>
                <time>2008-03-11T05:05:12.000-07:00</time>
            </trkpt>
            <trkpt lat="28.103784" lon="-17.250400">
                <ele>1362.325439</ele>
                <time>2008-03-11T05:06:10.000-07:00</time>
            </trkpt>
            <trkpt lat="28.103887" lon="-17.250427">
                <ele>1362.325439</ele>
                <time>2008-03-11T05:06:22.000-07:00</time>
            </trkpt>
            <trkpt lat="28.104346" lon="-17.250600">
                <ele>1381.551758</ele>
                <time>2008-03-11T05:07:55.000-07:00</time>
            </trkpt>
            <trkpt lat="28.104485" lon="-17.250573">
                <ele>1384.435791</ele>
                <time>2008-03-11T05:08:53.000-07:00</time>
            </trkpt>
            <trkpt lat="28.104818" lon="-17.250576">
                <ele>1389.242432</ele>
                <time>2008-03-11T05:09:43.000-07:00</time>
            </trkpt>
            <trkpt lat="28.104924" lon="-17.250640">
                <ele>1395.010254</ele>
                <time>2008-03-11T05:10:10.000-07:00</time>
            </trkpt>
            <trkpt lat="28.104922" lon="-17.250709">
                <ele>1395.971680</ele>
                <time>2008-03-11T05:10:23.000-07:00</time>
            </trkpt>
            <trkpt lat="28.104959" lon="-17.250808">
                <ele>1402.219971</ele>
                <time>2008-03-11T05:10:40.000-07:00</time>
            </trkpt>
            <trkpt lat="28.105142" lon="-17.250809">
                <ele>1409.910645</ele>
                <time>2008-03-11T05:12:30.000-07:00</time>
            </trkpt>
            <trkpt lat="28.105525" lon="-17.250953">
                <ele>1409.910645</ele>
                <time>2008-03-11T05:13:09.000-07:00</time>
            </trkpt>
            <trkpt lat="28.106176" lon="-17.251070">
                <ele>1416.639893</ele>
                <time>2008-03-11T05:14:12.000-07:00</time>
            </trkpt>
            <trkpt lat="28.106330" lon="-17.250995">
                <ele>1414.236572</ele>
                <time>2008-03-11T05:14:27.000-07:00</time>
            </trkpt>
            <trkpt lat="28.106586" lon="-17.250797">
                <ele>1401.739502</ele>
                <time>2008-03-11T05:14:52.000-07:00</time>
            </trkpt>
            <trkpt lat="28.106777" lon="-17.250642">
                <ele>1395.010254</ele>
                <time>2008-03-11T05:15:12.000-07:00</time>
            </trkpt>
            <trkpt lat="28.107074" lon="-17.250760">
                <ele>1401.258789</ele>
                <time>2008-03-11T05:15:42.000-07:00</time>
            </trkpt>
            <trkpt lat="28.107205" lon="-17.250742">
                <ele>1407.026855</ele>
                <time>2008-03-11T05:15:57.000-07:00</time>
            </trkpt>
            <trkpt lat="28.107349" lon="-17.250727">
                <ele>1411.833496</ele>
                <time>2008-03-11T05:16:12.000-07:00</time>
            </trkpt>
            <trkpt lat="28.107516" lon="-17.250673">
                <ele>1416.639893</ele>
                <time>2008-03-11T05:16:30.000-07:00</time>
            </trkpt>
            <trkpt lat="28.107680" lon="-17.250723">
                <ele>1415.197998</ele>
                <time>2008-03-11T05:16:45.000-07:00</time>
            </trkpt>
            <trkpt lat="28.107993" lon="-17.250595">
                <ele>1410.872070</ele>
                <time>2008-03-11T05:17:14.000-07:00</time>
            </trkpt>
            <trkpt lat="28.108109" lon="-17.250455">
                <ele>1404.623535</ele>
                <time>2008-03-11T05:17:28.000-07:00</time>
            </trkpt>
            <trkpt lat="28.108226" lon="-17.250451">
                <ele>1400.297607</ele>
                <time>2008-03-11T05:17:42.000-07:00</time>
            </trkpt>
            <trkpt lat="28.108580" lon="-17.250607">
                <ele>1401.258789</ele>
                <time>2008-03-11T05:18:17.000-07:00</time>
            </trkpt>
            <trkpt lat="28.108791" lon="-17.250541">
                <ele>1410.391357</ele>
                <time>2008-03-11T05:18:36.000-07:00</time>
            </trkpt>
            <trkpt lat="28.108965" lon="-17.250653">
                <ele>1413.755859</ele>
                <time>2008-03-11T05:18:54.000-07:00</time>
            </trkpt>
            <trkpt lat="28.109298" lon="-17.250487">
                <ele>1410.872070</ele>
                <time>2008-03-11T05:19:30.000-07:00</time>
            </trkpt>
            <trkpt lat="28.109476" lon="-17.250287">
                <ele>1406.546143</ele>
                <time>2008-03-11T05:19:51.000-07:00</time>
            </trkpt>
            <trkpt lat="28.109687" lon="-17.250096">
                <ele>1402.700684</ele>
                <time>2008-03-11T05:20:19.000-07:00</time>
            </trkpt>
            <trkpt lat="28.109779" lon="-17.250171">
                <ele>1407.988281</ele>
                <time>2008-03-11T05:20:28.000-07:00</time>
            </trkpt>
            <trkpt lat="28.109896" lon="-17.250239">
                <ele>1412.313965</ele>
                <time>2008-03-11T05:20:39.000-07:00</time>
            </trkpt>
            <trkpt lat="28.110000" lon="-17.250263">
                <ele>1416.639893</ele>
                <time>2008-03-11T05:20:51.000-07:00</time>
            </trkpt>
            <trkpt lat="28.110085" lon="-17.250225">
                <ele>1416.159180</ele>
                <time>2008-03-11T05:20:58.000-07:00</time>
            </trkpt>
            <trkpt lat="28.110237" lon="-17.250070">
                <ele>1412.794678</ele>
                <time>2008-03-11T05:21:16.000-07:00</time>
            </trkpt>
            <trkpt lat="28.110354" lon="-17.249916">
                <ele>1410.391357</ele>
                <time>2008-03-11T05:21:33.000-07:00</time>
            </trkpt>
            <trkpt lat="28.110414" lon="-17.249832">
                <ele>1411.352783</ele>
                <time>2008-03-11T05:21:43.000-07:00</time>
            </trkpt>
            <trkpt lat="28.110823" lon="-17.249557">
                <ele>1414.236572</ele>
                <time>2008-03-11T05:22:32.000-07:00</time>
            </trkpt>
            <trkpt lat="28.110947" lon="-17.249650">
                <ele>1419.043213</ele>
                <time>2008-03-11T05:22:45.000-07:00</time>
            </trkpt>
            <trkpt lat="28.111046" lon="-17.249705">
                <ele>1419.043213</ele>
                <time>2008-03-11T05:22:56.000-07:00</time>
            </trkpt>
            <trkpt lat="28.111162" lon="-17.249700">
                <ele>1421.927246</ele>
                <time>2008-03-11T05:25:09.000-07:00</time>
            </trkpt>
            <trkpt lat="28.111297" lon="-17.249377">
                <ele>1425.772461</ele>
                <time>2008-03-11T05:25:39.000-07:00</time>
            </trkpt>
            <trkpt lat="28.111259" lon="-17.249124">
                <ele>1429.136963</ele>
                <time>2008-03-11T05:26:01.000-07:00</time>
            </trkpt>
            <trkpt lat="28.111150" lon="-17.248784">
                <ele>1430.579102</ele>
                <time>2008-03-11T05:26:27.000-07:00</time>
            </trkpt>
            <trkpt lat="28.111078" lon="-17.248641">
                <ele>1432.020996</ele>
                <time>2008-03-11T05:26:40.000-07:00</time>
            </trkpt>
            <trkpt lat="28.111069" lon="-17.248479">
                <ele>1430.579102</ele>
                <time>2008-03-11T05:26:52.000-07:00</time>
            </trkpt>
            <trkpt lat="28.111089" lon="-17.248196">
                <ele>1435.385498</ele>
                <time>2008-03-11T05:27:14.000-07:00</time>
            </trkpt>
            <trkpt lat="28.111044" lon="-17.248008">
                <ele>1429.136963</ele>
                <time>2008-03-11T05:27:27.000-07:00</time>
            </trkpt>
            <trkpt lat="28.111007" lon="-17.247762">
                <ele>1430.579102</ele>
                <time>2008-03-11T05:27:47.000-07:00</time>
            </trkpt>
            <trkpt lat="28.111380" lon="-17.247485">
                <ele>1432.020996</ele>
                <time>2008-03-11T05:28:25.000-07:00</time>
            </trkpt>
            <trkpt lat="28.111309" lon="-17.247264">
                <ele>1431.059814</ele>
                <time>2008-03-11T05:28:48.000-07:00</time>
            </trkpt>
            <trkpt lat="28.111215" lon="-17.246817">
                <ele>1432.982178</ele>
                <time>2008-03-11T05:29:51.000-07:00</time>
            </trkpt>
            <trkpt lat="28.111175" lon="-17.246582">
                <ele>1436.347168</ele>
                <time>2008-03-11T05:30:08.000-07:00</time>
            </trkpt>
            <trkpt lat="28.111126" lon="-17.246168">
                <ele>1434.905029</ele>
                <time>2008-03-11T05:30:38.000-07:00</time>
            </trkpt>
            <trkpt lat="28.111174" lon="-17.246010">
                <ele>1437.308350</ele>
                <time>2008-03-11T05:30:56.000-07:00</time>
            </trkpt>
            <trkpt lat="28.111000" lon="-17.246210">
                <ele>1438.269775</ele>
                <time>2008-03-11T05:31:21.000-07:00</time>
            </trkpt>
            <trkpt lat="28.111018" lon="-17.246576">
                <ele>1443.076172</ele>
                <time>2008-03-11T05:31:55.000-07:00</time>
            </trkpt>
            <trkpt lat="28.110916" lon="-17.247033">
                <ele>1446.440918</ele>
                <time>2008-03-11T05:32:36.000-07:00</time>
            </trkpt>
            <trkpt lat="28.110797" lon="-17.247139">
                <ele>1450.766602</ele>
                <time>2008-03-11T05:32:51.000-07:00</time>
            </trkpt>
            <trkpt lat="28.110645" lon="-17.247276">
                <ele>1453.170166</ele>
                <time>2008-03-11T05:33:10.000-07:00</time>
            </trkpt>
            <trkpt lat="28.110480" lon="-17.247549">
                <ele>1455.092773</ele>
                <time>2008-03-11T05:33:39.000-07:00</time>
            </trkpt>
            <trkpt lat="28.110405" lon="-17.247905">
                <ele>1460.379883</ele>
                <time>2008-03-11T05:34:08.000-07:00</time>
            </trkpt>
            <trkpt lat="28.110306" lon="-17.248346">
                <ele>1464.225098</ele>
                <time>2008-03-11T05:34:48.000-07:00</time>
            </trkpt>
            <trkpt lat="28.110039" lon="-17.248743">
                <ele>1469.031982</ele>
                <time>2008-03-11T05:35:28.000-07:00</time>
            </trkpt>
            <trkpt lat="28.109818" lon="-17.248808">
                <ele>1472.877197</ele>
                <time>2008-03-11T05:35:52.000-07:00</time>
            </trkpt>
            <trkpt lat="28.109387" lon="-17.248662">
                <ele>1481.048340</ele>
                <time>2008-03-11T05:36:35.000-07:00</time>
            </trkpt>
            <trkpt lat="28.109242" lon="-17.248588">
                <ele>1489.700195</ele>
                <time>2008-03-11T05:36:53.000-07:00</time>
            </trkpt>
            <trkpt lat="28.109252" lon="-17.248380">
                <ele>1493.064697</ele>
                <time>2008-03-11T05:37:11.000-07:00</time>
            </trkpt>
            <trkpt lat="28.109422" lon="-17.248423">
                <ele>1493.545410</ele>
                <time>2008-03-11T05:38:37.000-07:00</time>
            </trkpt>
            <trkpt lat="28.109533" lon="-17.248504">
                <ele>1497.390625</ele>
                <time>2008-03-11T05:39:13.000-07:00</time>
            </trkpt>
            <trkpt lat="28.109804" lon="-17.248315">
                <ele>1498.351807</ele>
                <time>2008-03-11T05:47:50.000-07:00</time>
            </trkpt>
            <trkpt lat="28.109927" lon="-17.248007">
                <ele>1492.103516</ele>
                <time>2008-03-11T05:48:24.000-07:00</time>
            </trkpt>
            <trkpt lat="28.109996" lon="-17.247853">
                <ele>1488.739014</ele>
                <time>2008-03-11T05:48:42.000-07:00</time>
            </trkpt>
            <trkpt lat="28.110050" lon="-17.247658">
                <ele>1487.296875</ele>
                <time>2008-03-11T05:49:03.000-07:00</time>
            </trkpt>
            <trkpt lat="28.110137" lon="-17.247427">
                <ele>1483.932129</ele>
                <time>2008-03-11T05:49:30.000-07:00</time>
            </trkpt>
            <trkpt lat="28.110219" lon="-17.247266">
                <ele>1480.567627</ele>
                <time>2008-03-11T05:49:45.000-07:00</time>
            </trkpt>
            <trkpt lat="28.110411" lon="-17.247029">
                <ele>1476.722412</ele>
                <time>2008-03-11T05:50:11.000-07:00</time>
            </trkpt>
            <trkpt lat="28.110628" lon="-17.246529">
                <ele>1473.357910</ele>
                <time>2008-03-11T05:51:09.000-07:00</time>
            </trkpt>
            <trkpt lat="28.110644" lon="-17.246317">
                <ele>1470.473877</ele>
                <time>2008-03-11T05:51:43.000-07:00</time>
            </trkpt>
            <trkpt lat="28.110684" lon="-17.246057">
                <ele>1466.628418</ele>
                <time>2008-03-11T05:52:25.000-07:00</time>
            </trkpt>
            <trkpt lat="28.110743" lon="-17.245879">
                <ele>1464.225098</ele>
                <time>2008-03-11T05:52:44.000-07:00</time>
            </trkpt>
            <trkpt lat="28.110804" lon="-17.245648">
                <ele>1462.302490</ele>
                <time>2008-03-11T05:53:16.000-07:00</time>
            </trkpt>
            <trkpt lat="28.110985" lon="-17.245378">
                <ele>1468.070557</ele>
                <time>2008-03-11T05:53:53.000-07:00</time>
            </trkpt>
            <trkpt lat="28.111040" lon="-17.245066">
                <ele>1468.551270</ele>
                <time>2008-03-11T05:54:21.000-07:00</time>
            </trkpt>
            <trkpt lat="28.111067" lon="-17.244615">
                <ele>1468.551270</ele>
                <time>2008-03-11T05:56:11.000-07:00</time>
            </trkpt>
            <trkpt lat="28.111349" lon="-17.244190">
                <ele>1465.667236</ele>
                <time>2008-03-11T05:56:57.000-07:00</time>
            </trkpt>
            <trkpt lat="28.111369" lon="-17.243945">
                <ele>1461.341309</ele>
                <time>2008-03-11T05:57:19.000-07:00</time>
            </trkpt>
            <trkpt lat="28.111418" lon="-17.243589">
                <ele>1482.970703</ele>
                <time>2008-03-11T06:17:31.000-07:00</time>
            </trkpt>
            <trkpt lat="28.111476" lon="-17.243727">
                <ele>1473.838379</ele>
                <time>2008-03-11T06:17:46.000-07:00</time>
            </trkpt>
            <trkpt lat="28.111635" lon="-17.243726">
                <ele>1465.667236</ele>
                <time>2008-03-11T06:18:11.000-07:00</time>
            </trkpt>
            <trkpt lat="28.111777" lon="-17.243606">
                <ele>1460.860596</ele>
                <time>2008-03-11T06:18:31.000-07:00</time>
            </trkpt>
            <trkpt lat="28.111880" lon="-17.243583">
                <ele>1457.496094</ele>
                <time>2008-03-11T06:18:45.000-07:00</time>
            </trkpt>
            <trkpt lat="28.112099" lon="-17.243583">
                <ele>1444.518066</ele>
                <time>2008-03-11T06:19:15.000-07:00</time>
            </trkpt>
            <trkpt lat="28.112186" lon="-17.243560">
                <ele>1438.269775</ele>
                <time>2008-03-11T06:19:29.000-07:00</time>
            </trkpt>
            <trkpt lat="28.112325" lon="-17.243736">
                <ele>1435.866211</ele>
                <time>2008-03-11T06:20:13.000-07:00</time>
            </trkpt>
            <trkpt lat="28.112516" lon="-17.243708">
                <ele>1430.579102</ele>
                <time>2008-03-11T06:20:42.000-07:00</time>
            </trkpt>
            <trkpt lat="28.112699" lon="-17.243759">
                <ele>1426.733887</ele>
                <time>2008-03-11T06:21:01.000-07:00</time>
            </trkpt>
            <trkpt lat="28.112839" lon="-17.243760">
                <ele>1424.811279</ele>
                <time>2008-03-11T06:21:16.000-07:00</time>
            </trkpt>
            <trkpt lat="28.113114" lon="-17.243767">
                <ele>1419.043213</ele>
                <time>2008-03-11T06:21:52.000-07:00</time>
            </trkpt>
            <trkpt lat="28.113324" lon="-17.243724">
                <ele>1412.794678</ele>
                <time>2008-03-11T06:22:21.000-07:00</time>
            </trkpt>
            <trkpt lat="28.113483" lon="-17.243700">
                <ele>1408.949463</ele>
                <time>2008-03-11T06:22:47.000-07:00</time>
            </trkpt>
            <trkpt lat="28.113720" lon="-17.243751">
                <ele>1407.507568</ele>
                <time>2008-03-11T06:23:11.000-07:00</time>
            </trkpt>
            <trkpt lat="28.113891" lon="-17.243961">
                <ele>1402.700684</ele>
                <time>2008-03-11T06:24:04.000-07:00</time>
            </trkpt>
            <trkpt lat="28.114069" lon="-17.244082">
                <ele>1401.739502</ele>
                <time>2008-03-11T06:24:25.000-07:00</time>
            </trkpt>
            <trkpt lat="28.114317" lon="-17.244063">
                <ele>1399.816895</ele>
                <time>2008-03-11T06:24:51.000-07:00</time>
            </trkpt>
            <trkpt lat="28.114718" lon="-17.243860">
                <ele>1396.452393</ele>
                <time>2008-03-11T06:25:31.000-07:00</time>
            </trkpt>
            <trkpt lat="28.114861" lon="-17.243805">
                <ele>1393.087646</ele>
                <time>2008-03-11T06:25:46.000-07:00</time>
            </trkpt>
            <trkpt lat="28.115099" lon="-17.243746">
                <ele>1389.723145</ele>
                <time>2008-03-11T06:26:31.000-07:00</time>
            </trkpt>
            <trkpt lat="28.115225" lon="-17.243736">
                <ele>1385.396973</ele>
                <time>2008-03-11T06:29:13.000-07:00</time>
            </trkpt>
            <trkpt lat="28.115479" lon="-17.244020">
                <ele>1382.032471</ele>
                <time>2008-03-11T06:29:42.000-07:00</time>
            </trkpt>
            <trkpt lat="28.115797" lon="-17.244389">
                <ele>1379.148438</ele>
                <time>2008-03-11T06:30:52.000-07:00</time>
            </trkpt>
            <trkpt lat="28.115902" lon="-17.244365">
                <ele>1375.303223</ele>
                <time>2008-03-11T06:31:06.000-07:00</time>
            </trkpt>
            <trkpt lat="28.115965" lon="-17.244514">
                <ele>1371.457764</ele>
                <time>2008-03-11T06:31:25.000-07:00</time>
            </trkpt>
            <trkpt lat="28.116016" lon="-17.244646">
                <ele>1368.093262</ele>
                <time>2008-03-11T06:31:38.000-07:00</time>
            </trkpt>
            <trkpt lat="28.116158" lon="-17.244785">
                <ele>1363.286865</ele>
                <time>2008-03-11T06:31:54.000-07:00</time>
            </trkpt>
            <trkpt lat="28.116297" lon="-17.245163">
                <ele>1357.519043</ele>
                <time>2008-03-11T06:32:31.000-07:00</time>
            </trkpt>
            <trkpt lat="28.116391" lon="-17.245266">
                <ele>1356.076904</ele>
                <time>2008-03-11T06:32:45.000-07:00</time>
            </trkpt>
            <trkpt lat="28.116522" lon="-17.245458">
                <ele>1357.038330</ele>
                <time>2008-03-11T06:33:27.000-07:00</time>
            </trkpt>
            <trkpt lat="28.116543" lon="-17.245606">
                <ele>1357.038330</ele>
                <time>2008-03-11T06:33:39.000-07:00</time>
            </trkpt>
            <trkpt lat="28.116635" lon="-17.245876">
                <ele>1353.673584</ele>
                <time>2008-03-11T06:34:00.000-07:00</time>
            </trkpt>
            <trkpt lat="28.116786" lon="-17.246182">
                <ele>1347.425049</ele>
                <time>2008-03-11T06:34:25.000-07:00</time>
            </trkpt>
            <trkpt lat="28.116906" lon="-17.246266">
                <ele>1345.983154</ele>
                <time>2008-03-11T06:34:42.000-07:00</time>
            </trkpt>
            <trkpt lat="28.117301" lon="-17.246593">
                <ele>1342.137939</ele>
                <time>2008-03-11T06:35:23.000-07:00</time>
            </trkpt>
            <trkpt lat="28.117517" lon="-17.246801">
                <ele>1338.292480</ele>
                <time>2008-03-11T06:36:06.000-07:00</time>
            </trkpt>
            <trkpt lat="28.117636" lon="-17.246997">
                <ele>1333.966553</ele>
                <time>2008-03-11T06:36:29.000-07:00</time>
            </trkpt>
            <trkpt lat="28.117251" lon="-17.246830">
                <ele>1333.005127</ele>
                <time>2008-03-11T06:37:07.000-07:00</time>
            </trkpt>
            <trkpt lat="28.116837" lon="-17.246682">
                <ele>1336.850342</ele>
                <time>2008-03-11T06:37:44.000-07:00</time>
            </trkpt>
            <trkpt lat="28.116543" lon="-17.246694">
                <ele>1341.657227</ele>
                <time>2008-03-11T06:38:05.000-07:00</time>
            </trkpt>
            <trkpt lat="28.116442" lon="-17.246643">
                <ele>1340.695801</ele>
                <time>2008-03-11T06:38:15.000-07:00</time>
            </trkpt>
            <trkpt lat="28.116089" lon="-17.246536">
                <ele>1344.060547</ele>
                <time>2008-03-11T06:38:56.000-07:00</time>
            </trkpt>
            <trkpt lat="28.116292" lon="-17.246913">
                <ele>1347.425049</ele>
                <time>2008-03-11T06:39:27.000-07:00</time>
            </trkpt>
            <trkpt lat="28.116552" lon="-17.247520">
                <ele>1346.463867</ele>
                <time>2008-03-11T06:40:17.000-07:00</time>
            </trkpt>
            <trkpt lat="28.116799" lon="-17.247783">
                <ele>1338.773193</ele>
                <time>2008-03-11T06:40:37.000-07:00</time>
            </trkpt>
            <trkpt lat="28.116895" lon="-17.247858">
                <ele>1335.408447</ele>
                <time>2008-03-11T06:40:44.000-07:00</time>
            </trkpt>
            <trkpt lat="28.116973" lon="-17.247953">
                <ele>1327.237549</ele>
                <time>2008-03-11T06:40:55.000-07:00</time>
            </trkpt>
            <trkpt lat="28.117037" lon="-17.248032">
                <ele>1321.469238</ele>
                <time>2008-03-11T06:41:04.000-07:00</time>
            </trkpt>
            <trkpt lat="28.117052" lon="-17.248160">
                <ele>1318.104736</ele>
                <time>2008-03-11T06:41:16.000-07:00</time>
            </trkpt>
            <trkpt lat="28.117093" lon="-17.248351">
                <ele>1317.143555</ele>
                <time>2008-03-11T06:41:30.000-07:00</time>
            </trkpt>
            <trkpt lat="28.117195" lon="-17.248797">
                <ele>1320.508057</ele>
                <time>2008-03-11T06:42:04.000-07:00</time>
            </trkpt>
            <trkpt lat="28.117304" lon="-17.249149">
                <ele>1303.204346</ele>
                <time>2008-03-11T06:42:36.000-07:00</time>
            </trkpt>
            <trkpt lat="28.117346" lon="-17.249342">
                <ele>1300.801025</ele>
                <time>2008-03-11T06:43:20.000-07:00</time>
            </trkpt>
            <trkpt lat="28.117180" lon="-17.249075">
                <ele>1297.436523</ele>
                <time>2008-03-11T06:43:47.000-07:00</time>
            </trkpt>
            <trkpt lat="28.117066" lon="-17.248941">
                <ele>1295.994629</ele>
                <time>2008-03-11T06:44:01.000-07:00</time>
            </trkpt>
            <trkpt lat="28.116889" lon="-17.248722">
                <ele>1295.513916</ele>
                <time>2008-03-11T06:44:22.000-07:00</time>
            </trkpt>
            <trkpt lat="28.116762" lon="-17.249174">
                <ele>1298.878418</ele>
                <time>2008-03-11T06:44:58.000-07:00</time>
            </trkpt>
            <trkpt lat="28.116811" lon="-17.249862">
                <ele>1301.281738</ele>
                <time>2008-03-11T06:45:47.000-07:00</time>
            </trkpt>
            <trkpt lat="28.116741" lon="-17.250134">
                <ele>1297.917236</ele>
                <time>2008-03-11T06:46:06.000-07:00</time>
            </trkpt>
            <trkpt lat="28.116483" lon="-17.250259">
                <ele>1297.436523</ele>
                <time>2008-03-11T06:46:28.000-07:00</time>
            </trkpt>
            <trkpt lat="28.116086" lon="-17.250379">
                <ele>1297.917236</ele>
                <time>2008-03-11T06:47:02.000-07:00</time>
            </trkpt>
            <trkpt lat="28.116255" lon="-17.250783">
                <ele>1297.917236</ele>
                <time>2008-03-11T06:47:35.000-07:00</time>
            </trkpt>
            <trkpt lat="28.116308" lon="-17.251068">
                <ele>1298.878418</ele>
                <time>2008-03-11T06:48:03.000-07:00</time>
            </trkpt>
            <trkpt lat="28.116423" lon="-17.251325">
                <ele>1300.801025</ele>
                <time>2008-03-11T06:48:32.000-07:00</time>
            </trkpt>
            <trkpt lat="28.116528" lon="-17.251727">
                <ele>1304.646240</ele>
                <time>2008-03-11T06:49:24.000-07:00</time>
            </trkpt>
            <trkpt lat="28.116484" lon="-17.251940">
                <ele>1304.165771</ele>
                <time>2008-03-11T06:49:41.000-07:00</time>
            </trkpt>
            <trkpt lat="28.116447" lon="-17.252287">
                <ele>1307.530273</ele>
                <time>2008-03-11T06:50:06.000-07:00</time>
            </trkpt>
            <trkpt lat="28.116421" lon="-17.252515">
                <ele>1310.895020</ele>
                <time>2008-03-11T06:50:23.000-07:00</time>
            </trkpt>
            <trkpt lat="28.116419" lon="-17.252624">
                <ele>1311.856445</ele>
                <time>2008-03-11T06:50:31.000-07:00</time>
            </trkpt>
            <trkpt lat="28.116648" lon="-17.252966">
                <ele>1311.856445</ele>
                <time>2008-03-11T06:51:18.000-07:00</time>
            </trkpt>
            <trkpt lat="28.116371" lon="-17.253410">
                <ele>1310.895020</ele>
                <time>2008-03-11T06:52:01.000-07:00</time>
            </trkpt>
            <trkpt lat="28.116279" lon="-17.253725">
                <ele>1314.740234</ele>
                <time>2008-03-11T06:52:29.000-07:00</time>
            </trkpt>
            <trkpt lat="28.116257" lon="-17.253887">
                <ele>1318.104736</ele>
                <time>2008-03-11T06:52:42.000-07:00</time>
            </trkpt>
            <trkpt lat="28.116248" lon="-17.254046">
                <ele>1321.469238</ele>
                <time>2008-03-11T06:52:56.000-07:00</time>
            </trkpt>
            <trkpt lat="28.116264" lon="-17.254145">
                <ele>1324.834229</ele>
                <time>2008-03-11T06:53:05.000-07:00</time>
            </trkpt>
            <trkpt lat="28.116345" lon="-17.254424">
                <ele>1328.198730</ele>
                <time>2008-03-11T06:53:31.000-07:00</time>
            </trkpt>
            <trkpt lat="28.116430" lon="-17.254678">
                <ele>1330.121338</ele>
                <time>2008-03-11T06:53:56.000-07:00</time>
            </trkpt>
            <trkpt lat="28.116581" lon="-17.254909">
                <ele>1333.485840</ele>
                <time>2008-03-11T06:54:23.000-07:00</time>
            </trkpt>
            <trkpt lat="28.116576" lon="-17.255082">
                <ele>1337.811768</ele>
                <time>2008-03-11T06:54:41.000-07:00</time>
            </trkpt>
            <trkpt lat="28.116552" lon="-17.255337">
                <ele>1338.773193</ele>
                <time>2008-03-11T06:55:33.000-07:00</time>
            </trkpt>
            <trkpt lat="28.116468" lon="-17.255728">
                <ele>1334.447266</ele>
                <time>2008-03-11T06:56:05.000-07:00</time>
            </trkpt>
            <trkpt lat="28.116379" lon="-17.255966">
                <ele>1331.082764</ele>
                <time>2008-03-11T06:56:25.000-07:00</time>
            </trkpt>
            <trkpt lat="28.116286" lon="-17.256137">
                <ele>1327.718018</ele>
                <time>2008-03-11T06:56:40.000-07:00</time>
            </trkpt>
            <trkpt lat="28.116187" lon="-17.256235">
                <ele>1326.756836</ele>
                <time>2008-03-11T06:56:51.000-07:00</time>
            </trkpt>
            <trkpt lat="28.116076" lon="-17.256915">
                <ele>1320.988770</ele>
                <time>2008-03-11T06:57:48.000-07:00</time>
            </trkpt>
            <trkpt lat="28.116225" lon="-17.257068">
                <ele>1320.027344</ele>
                <time>2008-03-11T06:58:08.000-07:00</time>
            </trkpt>
            <trkpt lat="28.116295" lon="-17.257182">
                <ele>1318.585449</ele>
                <time>2008-03-11T06:58:20.000-07:00</time>
            </trkpt>
            <trkpt lat="28.116261" lon="-17.257425">
                <ele>1311.856445</ele>
                <time>2008-03-11T06:58:45.000-07:00</time>
            </trkpt>
            <trkpt lat="28.115982" lon="-17.257601">
                <ele>1312.336914</ele>
                <time>2008-03-11T06:59:26.000-07:00</time>
            </trkpt>
            <trkpt lat="28.115878" lon="-17.257684">
                <ele>1314.259521</ele>
                <time>2008-03-11T06:59:39.000-07:00</time>
            </trkpt>
            <trkpt lat="28.115802" lon="-17.257750">
                <ele>1313.778809</ele>
                <time>2008-03-11T07:00:34.000-07:00</time>
            </trkpt>
            <trkpt lat="28.115698" lon="-17.257922">
                <ele>1313.298340</ele>
                <time>2008-03-11T07:00:50.000-07:00</time>
            </trkpt>
            <trkpt lat="28.115437" lon="-17.258183">
                <ele>1314.259521</ele>
                <time>2008-03-11T07:01:22.000-07:00</time>
            </trkpt>
            <trkpt lat="28.115233" lon="-17.258207">
                <ele>1319.066162</ele>
                <time>2008-03-11T07:01:40.000-07:00</time>
            </trkpt>
            <trkpt lat="28.115065" lon="-17.258299">
                <ele>1322.911377</ele>
                <time>2008-03-11T07:02:01.000-07:00</time>
            </trkpt>
            <trkpt lat="28.114851" lon="-17.258426">
                <ele>1325.795410</ele>
                <time>2008-03-11T07:02:20.000-07:00</time>
            </trkpt>
            <trkpt lat="28.114725" lon="-17.258487">
                <ele>1275.806641</ele>
                <time>2008-03-11T07:26:02.000-07:00</time>
            </trkpt>
            <trkpt lat="28.114682" lon="-17.258679">
                <ele>1276.287598</ele>
                <time>2008-03-11T07:26:14.000-07:00</time>
            </trkpt>
            <trkpt lat="28.114504" lon="-17.258985">
                <ele>1271.480713</ele>
                <time>2008-03-11T07:26:38.000-07:00</time>
            </trkpt>
            <trkpt lat="28.114463" lon="-17.259177">
                <ele>1270.519531</ele>
                <time>2008-03-11T07:26:53.000-07:00</time>
            </trkpt>
            <trkpt lat="28.114403" lon="-17.259406">
                <ele>1271.961426</ele>
                <time>2008-03-11T07:27:26.000-07:00</time>
            </trkpt>
            <trkpt lat="28.114415" lon="-17.259667">
                <ele>1275.325928</ele>
                <time>2008-03-11T07:27:49.000-07:00</time>
            </trkpt>
            <trkpt lat="28.114334" lon="-17.259928">
                <ele>1277.729492</ele>
                <time>2008-03-11T07:28:22.000-07:00</time>
            </trkpt>
            <trkpt lat="28.114130" lon="-17.260400">
                <ele>1281.574707</ele>
                <time>2008-03-11T07:29:03.000-07:00</time>
            </trkpt>
            <trkpt lat="28.113832" lon="-17.261075">
                <ele>1278.210205</ele>
                <time>2008-03-11T07:29:49.000-07:00</time>
            </trkpt>
            <trkpt lat="28.113248" lon="-17.261830">
                <ele>1277.249023</ele>
                <time>2008-03-11T07:31:36.000-07:00</time>
            </trkpt>
            <trkpt lat="28.113024" lon="-17.262337">
                <ele>1274.364746</ele>
                <time>2008-03-11T07:32:15.000-07:00</time>
            </trkpt>
            <trkpt lat="28.112616" lon="-17.262904">
                <ele>1273.403564</ele>
                <time>2008-03-11T07:33:11.000-07:00</time>
            </trkpt>
            <trkpt lat="28.112518" lon="-17.263174">
                <ele>1270.519531</ele>
                <time>2008-03-11T07:33:33.000-07:00</time>
            </trkpt>
            <trkpt lat="28.112211" lon="-17.263617">
                <ele>1271.961426</ele>
                <time>2008-03-11T07:34:17.000-07:00</time>
            </trkpt>
            <trkpt lat="28.112126" lon="-17.263969">
                <ele>1266.674316</ele>
                <time>2008-03-11T07:34:42.000-07:00</time>
            </trkpt>
            <trkpt lat="28.112039" lon="-17.264112">
                <ele>1267.155029</ele>
                <time>2008-03-11T07:34:53.000-07:00</time>
            </trkpt>
            <trkpt lat="28.111844" lon="-17.264561">
                <ele>1264.751709</ele>
                <time>2008-03-11T07:35:29.000-07:00</time>
            </trkpt>
            <trkpt lat="28.111734" lon="-17.264634">
                <ele>1265.713135</ele>
                <time>2008-03-11T07:37:22.000-07:00</time>
            </trkpt>
            <trkpt lat="28.111783" lon="-17.264800">
                <ele>1265.232422</ele>
                <time>2008-03-11T07:37:38.000-07:00</time>
            </trkpt>
            <trkpt lat="28.111787" lon="-17.265060">
                <ele>1260.906494</ele>
                <time>2008-03-11T07:37:59.000-07:00</time>
            </trkpt>
            <trkpt lat="28.111815" lon="-17.265388">
                <ele>1256.580322</ele>
                <time>2008-03-11T07:38:27.000-07:00</time>
            </trkpt>
            <trkpt lat="28.111809" lon="-17.265752">
                <ele>1252.254395</ele>
                <time>2008-03-11T07:38:54.000-07:00</time>
            </trkpt>
            <trkpt lat="28.111744" lon="-17.265954">
                <ele>1248.409180</ele>
                <time>2008-03-11T07:39:09.000-07:00</time>
            </trkpt>
            <trkpt lat="28.111650" lon="-17.266199">
                <ele>1244.083496</ele>
                <time>2008-03-11T07:39:30.000-07:00</time>
            </trkpt>
            <trkpt lat="28.111501" lon="-17.266530">
                <ele>1243.121826</ele>
                <time>2008-03-11T07:39:57.000-07:00</time>
            </trkpt>
            <trkpt lat="28.111419" lon="-17.266870">
                <ele>1246.486816</ele>
                <time>2008-03-11T07:40:24.000-07:00</time>
            </trkpt>
            <trkpt lat="28.111397" lon="-17.267112">
                <ele>1249.851318</ele>
                <time>2008-03-11T07:40:43.000-07:00</time>
            </trkpt>
            <trkpt lat="28.111366" lon="-17.267354">
                <ele>1255.619141</ele>
                <time>2008-03-11T07:41:07.000-07:00</time>
            </trkpt>
            <trkpt lat="28.111280" lon="-17.267800">
                <ele>1259.464355</ele>
                <time>2008-03-11T07:41:41.000-07:00</time>
            </trkpt>
            <trkpt lat="28.111185" lon="-17.268064">
                <ele>1266.193604</ele>
                <time>2008-03-11T07:42:09.000-07:00</time>
            </trkpt>
            <trkpt lat="28.111104" lon="-17.268408">
                <ele>1267.635498</ele>
                <time>2008-03-11T07:42:36.000-07:00</time>
            </trkpt>
            <trkpt lat="28.110941" lon="-17.268736">
                <ele>1268.116211</ele>
                <time>2008-03-11T07:43:08.000-07:00</time>
            </trkpt>
            <trkpt lat="28.110885" lon="-17.269162">
                <ele>1270.038818</ele>
                <time>2008-03-11T07:43:42.000-07:00</time>
            </trkpt>
            <trkpt lat="28.110875" lon="-17.269418">
                <ele>1264.270996</ele>
                <time>2008-03-11T07:44:08.000-07:00</time>
            </trkpt>
            <trkpt lat="28.110757" lon="-17.269531">
                <ele>1243.121826</ele>
                <time>2008-03-11T07:44:19.000-07:00</time>
            </trkpt>
            <trkpt lat="28.110705" lon="-17.269653">
                <ele>1238.315430</ele>
                <time>2008-03-11T07:44:33.000-07:00</time>
            </trkpt>
            <trkpt lat="28.110626" lon="-17.269836">
                <ele>1234.950928</ele>
                <time>2008-03-11T07:44:58.000-07:00</time>
            </trkpt>
            <trkpt lat="28.110591" lon="-17.269971">
                <ele>1228.221680</ele>
                <time>2008-03-11T07:45:08.000-07:00</time>
            </trkpt>
            <trkpt lat="28.110679" lon="-17.270272">
                <ele>1221.972900</ele>
                <time>2008-03-11T07:45:53.000-07:00</time>
            </trkpt>
            <trkpt lat="28.111006" lon="-17.270855">
                <ele>1220.531006</ele>
                <time>2008-03-11T07:46:45.000-07:00</time>
            </trkpt>
            <trkpt lat="28.111131" lon="-17.271078">
                <ele>1208.033936</ele>
                <time>2008-03-11T07:47:04.000-07:00</time>
            </trkpt>
            <trkpt lat="28.111189" lon="-17.271429">
                <ele>1202.265869</ele>
                <time>2008-03-11T07:47:30.000-07:00</time>
            </trkpt>
            <trkpt lat="28.111234" lon="-17.271600">
                <ele>1200.343506</ele>
                <time>2008-03-11T07:47:46.000-07:00</time>
            </trkpt>
            <trkpt lat="28.111201" lon="-17.271845">
                <ele>1198.901367</ele>
                <time>2008-03-11T07:48:04.000-07:00</time>
            </trkpt>
            <trkpt lat="28.111195" lon="-17.272002">
                <ele>1197.459473</ele>
                <time>2008-03-11T07:48:16.000-07:00</time>
            </trkpt>
            <trkpt lat="28.111209" lon="-17.272203">
                <ele>1196.017578</ele>
                <time>2008-03-11T07:48:31.000-07:00</time>
            </trkpt>
            <trkpt lat="28.111286" lon="-17.272494">
                <ele>1192.172119</ele>
                <time>2008-03-11T07:48:51.000-07:00</time>
            </trkpt>
            <trkpt lat="28.111327" lon="-17.272585">
                <ele>1185.923584</ele>
                <time>2008-03-11T07:48:58.000-07:00</time>
            </trkpt>
            <trkpt lat="28.111376" lon="-17.272750">
                <ele>1185.923584</ele>
                <time>2008-03-11T07:49:12.000-07:00</time>
            </trkpt>
            <trkpt lat="28.111415" lon="-17.272907">
                <ele>1184.962402</ele>
                <time>2008-03-11T07:49:24.000-07:00</time>
            </trkpt>
            <trkpt lat="28.111512" lon="-17.273074">
                <ele>1180.155762</ele>
                <time>2008-03-11T07:49:40.000-07:00</time>
            </trkpt>
            <trkpt lat="28.111591" lon="-17.273221">
                <ele>1176.310303</ele>
                <time>2008-03-11T07:49:54.000-07:00</time>
            </trkpt>
            <trkpt lat="28.111591" lon="-17.273592">
                <ele>1172.945801</ele>
                <time>2008-03-11T07:50:21.000-07:00</time>
            </trkpt>
            <trkpt lat="28.111455" lon="-17.274132">
                <ele>1171.984375</ele>
                <time>2008-03-11T07:51:02.000-07:00</time>
            </trkpt>
            <trkpt lat="28.111336" lon="-17.274600">
                <ele>1168.139160</ele>
                <time>2008-03-11T07:51:37.000-07:00</time>
            </trkpt>
            <trkpt lat="28.111299" lon="-17.274794">
                <ele>1164.293945</ele>
                <time>2008-03-11T07:51:51.000-07:00</time>
            </trkpt>
            <trkpt lat="28.111273" lon="-17.274991">
                <ele>1159.967773</ele>
                <time>2008-03-11T07:52:05.000-07:00</time>
            </trkpt>
            <trkpt lat="28.111266" lon="-17.275135">
                <ele>1160.929199</ele>
                <time>2008-03-11T07:52:16.000-07:00</time>
            </trkpt>
            <trkpt lat="28.110962" lon="-17.275396">
                <ele>1162.851807</ele>
                <time>2008-03-11T07:52:51.000-07:00</time>
            </trkpt>
            <trkpt lat="28.110960" lon="-17.275596">
                <ele>1159.487305</ele>
                <time>2008-03-11T07:53:04.000-07:00</time>
            </trkpt>
            <trkpt lat="28.110820" lon="-17.276210">
                <ele>1156.122559</ele>
                <time>2008-03-11T07:53:50.000-07:00</time>
            </trkpt>
            <trkpt lat="28.110745" lon="-17.276386">
                <ele>1169.100586</ele>
                <time>2008-03-11T07:57:15.000-07:00</time>
            </trkpt>
            <trkpt lat="28.110759" lon="-17.276611">
                <ele>1167.177979</ele>
                <time>2008-03-11T07:57:30.000-07:00</time>
            </trkpt>
            <trkpt lat="28.110771" lon="-17.276713">
                <ele>1165.736084</ele>
                <time>2008-03-11T07:57:38.000-07:00</time>
            </trkpt>
            <trkpt lat="28.110751" lon="-17.276907">
                <ele>1164.293945</ele>
                <time>2008-03-11T07:57:53.000-07:00</time>
            </trkpt>
            <trkpt lat="28.110670" lon="-17.277174">
                <ele>1160.929199</ele>
                <time>2008-03-11T07:58:13.000-07:00</time>
            </trkpt>
            <trkpt lat="28.110640" lon="-17.277539">
                <ele>1155.161377</ele>
                <time>2008-03-11T07:58:41.000-07:00</time>
            </trkpt>
            <trkpt lat="28.110531" lon="-17.277753">
                <ele>1149.874268</ele>
                <time>2008-03-11T07:59:02.000-07:00</time>
            </trkpt>
            <trkpt lat="28.110489" lon="-17.278069">
                <ele>1139.780273</ele>
                <time>2008-03-11T07:59:30.000-07:00</time>
            </trkpt>
            <trkpt lat="28.110493" lon="-17.278175">
                <ele>1135.935059</ele>
                <time>2008-03-11T07:59:39.000-07:00</time>
            </trkpt>
            <trkpt lat="28.110562" lon="-17.278482">
                <ele>1127.283203</ele>
                <time>2008-03-11T08:00:11.000-07:00</time>
            </trkpt>
            <trkpt lat="28.110561" lon="-17.278823">
                <ele>1123.437988</ele>
                <time>2008-03-11T08:00:42.000-07:00</time>
            </trkpt>
            <trkpt lat="28.110553" lon="-17.279068">
                <ele>1119.112061</ele>
                <time>2008-03-11T08:01:02.000-07:00</time>
            </trkpt>
            <trkpt lat="28.110575" lon="-17.279264">
                <ele>1117.669922</ele>
                <time>2008-03-11T08:01:17.000-07:00</time>
            </trkpt>
            <trkpt lat="28.110554" lon="-17.279671">
                <ele>1112.863281</ele>
                <time>2008-03-11T08:01:48.000-07:00</time>
            </trkpt>
            <trkpt lat="28.110558" lon="-17.279779">
                <ele>1113.343994</ele>
                <time>2008-03-11T08:01:57.000-07:00</time>
            </trkpt>
            <trkpt lat="28.110428" lon="-17.280160">
                <ele>1111.421387</ele>
                <time>2008-03-11T08:02:30.000-07:00</time>
            </trkpt>
            <trkpt lat="28.110171" lon="-17.280956">
                <ele>1108.537354</ele>
                <time>2008-03-11T08:03:43.000-07:00</time>
            </trkpt>
            <trkpt lat="28.110133" lon="-17.281188">
                <ele>1104.211670</ele>
                <time>2008-03-11T08:04:03.000-07:00</time>
            </trkpt>
            <trkpt lat="28.110108" lon="-17.281361">
                <ele>1097.962891</ele>
                <time>2008-03-11T08:04:19.000-07:00</time>
            </trkpt>
            <trkpt lat="28.110010" lon="-17.281716">
                <ele>1094.117676</ele>
                <time>2008-03-11T08:04:55.000-07:00</time>
            </trkpt>
            <trkpt lat="28.110066" lon="-17.281967">
                <ele>1088.349854</ele>
                <time>2008-03-11T08:05:15.000-07:00</time>
            </trkpt>
            <trkpt lat="28.110046" lon="-17.282084">
                <ele>1092.195068</ele>
                <time>2008-03-11T08:05:26.000-07:00</time>
            </trkpt>
            <trkpt lat="28.110085" lon="-17.282398">
                <ele>1088.830566</ele>
                <time>2008-03-11T08:05:52.000-07:00</time>
            </trkpt>
            <trkpt lat="28.110023" lon="-17.282720">
                <ele>1086.427246</ele>
                <time>2008-03-11T08:06:16.000-07:00</time>
            </trkpt>
            <trkpt lat="28.110026" lon="-17.282824">
                <ele>1084.504639</ele>
                <time>2008-03-11T08:06:23.000-07:00</time>
            </trkpt>
        </trkseg>
    </trk>
</gpx>